sensor_id;sensor_type;location;lat;lon;timestamp;temperature;humidity
19033;DHT22;9649;51.042;13.804;2022-12-18T00:04:18;-7.00;99.90
19033;DHT22;9649;51.042;13.804;2022-12-18T00:09:23;-7.10;99.90
19033;DHT22;9649;51.042;13.804;2022-12-18T00:14:33;-7.10;99.90
19033;DHT22;9649;51.042;13.804;2022-12-18T00:19:36;-7.00;99.90
19033;DHT22;9649;51.042;13.804;2022-12-18T00:24:39;-7.20;99.90
19033;DHT22;9649;51.042;13.804;2022-12-18T00:29:43;-7.30;99.90
19033;DHT22;9649;51.042;13.804;2022-12-18T00:34:45;-7.10;99.90
19033;DHT22;9649;51.042;13.804;2022-12-18T00:39:48;-7.10;99.90
19033;DHT22;9649;51.042;13.804;2022-12-18T00:44:53;-7.00;99.90
19033;DHT22;9649;51.042;13.804;2022-12-18T00:49:56;-7.00;99.90
19033;DHT22;9649;51.042;13.804;2022-12-18T00:54:58;-7.20;99.90
19033;DHT22;9649;51.042;13.804;2022-12-18T01:00:11;-7.30;99.90
19033;DHT22;9649;51.042;13.804;2022-12-18T01:05:14;-7.30;99.90
19033;DHT22;9649;51.042;13.804;2022-12-18T01:10:17;-7.50;99.90
19033;DHT22;9649;51.042;13.804;2022-12-18T01:15:22;-7.60;99.90
19033;DHT22;9649;51.042;13.804;2022-12-18T01:20:24;-7.60;99.90
19033;DHT22;9649;51.042;13.804;2022-12-18T01:25:27;-7.50;99.90
19033;DHT22;9649;51.042;13.804;2022-12-18T01:30:32;-7.50;99.90
19033;DHT22;9649;51.042;13.804;2022-12-18T01:35:40;-7.60;99.90
19033;DHT22;9649;51.042;13.804;2022-12-18T01:40:43;-7.80;99.90
19033;DHT22;9649;51.042;13.804;2022-12-18T01:45:47;-7.80;99.90
19033;DHT22;9649;51.042;13.804;2022-12-18T01:50:50;-8.00;99.90
19033;DHT22;9649;51.042;13.804;2022-12-18T01:55:55;-8.00;99.90
19033;DHT22;9649;51.042;13.804;2022-12-18T02:00:59;-8.00;99.90
19033;DHT22;9649;51.042;13.804;2022-12-18T02:06:07;-8.20;99.90
19033;DHT22;9649;51.042;13.804;2022-12-18T02:11:17;-8.30;99.90
19033;DHT22;9649;51.042;13.804;2022-12-18T02:16:26;-8.30;99.90
19033;DHT22;9649;51.042;13.804;2022-12-18T02:21:42;-8.20;99.90
19033;DHT22;9649;51.042;13.804;2022-12-18T02:26:49;-7.90;99.90
19033;DHT22;9649;51.042;13.804;2022-12-18T02:31:56;-7.70;99.90
19033;DHT22;9649;51.042;13.804;2022-12-18T02:37:03;-7.80;99.90
19033;DHT22;9649;51.042;13.804;2022-12-18T02:42:09;-7.80;99.90
19033;DHT22;9649;51.042;13.804;2022-12-18T02:47:15;-7.50;99.90
19033;DHT22;9649;51.042;13.804;2022-12-18T02:52:27;-7.60;99.90
19033;DHT22;9649;51.042;13.804;2022-12-18T02:57:36;-7.60;99.90
19033;DHT22;9649;51.042;13.804;2022-12-18T03:02:47;-7.70;99.90
19033;DHT22;9649;51.042;13.804;2022-12-18T03:07:55;-7.70;99.90
19033;DHT22;9649;51.042;13.804;2022-12-18T03:13:04;-7.50;99.90
19033;DHT22;9649;51.042;13.804;2022-12-18T03:18:10;-7.60;99.90
19033;DHT22;9649;51.042;13.804;2022-12-18T03:23:18;-7.60;99.90
19033;DHT22;9649;51.042;13.804;2022-12-18T03:28:30;-7.40;99.90
19033;DHT22;9649;51.042;13.804;2022-12-18T03:33:38;-7.40;99.90
19033;DHT22;9649;51.042;13.804;2022-12-18T03:38:42;-7.40;99.90
19033;DHT22;9649;51.042;13.804;2022-12-18T03:43:49;-7.70;99.90
19033;DHT22;9649;51.042;13.804;2022-12-18T03:48:59;-7.80;99.90
19033;DHT22;9649;51.042;13.804;2022-12-18T03:54:05;-7.90;99.90
19033;DHT22;9649;51.042;13.804;2022-12-18T03:59:11;-8.20;99.90
19033;DHT22;9649;51.042;13.804;2022-12-18T04:04:17;-8.50;99.90
19033;DHT22;9649;51.042;13.804;2022-12-18T04:09:21;-8.50;99.90
19033;DHT22;9649;51.042;13.804;2022-12-18T04:14:25;-8.50;99.90
19033;DHT22;9649;51.042;13.804;2022-12-18T04:19:28;-8.50;99.90
19033;DHT22;9649;51.042;13.804;2022-12-18T04:24:31;-8.60;99.90
19033;DHT22;9649;51.042;13.804;2022-12-18T04:29:35;-8.60;99.90
19033;DHT22;9649;51.042;13.804;2022-12-18T04:34:38;-8.40;99.90
19033;DHT22;9649;51.042;13.804;2022-12-18T04:39:40;-8.50;99.90
19033;DHT22;9649;51.042;13.804;2022-12-18T04:44:45;-8.60;99.90
19033;DHT22;9649;51.042;13.804;2022-12-18T04:49:47;-8.70;99.90
19033;DHT22;9649;51.042;13.804;2022-12-18T04:54:50;-8.60;99.90
19033;DHT22;9649;51.042;13.804;2022-12-18T04:59:54;-8.70;99.90
19033;DHT22;9649;51.042;13.804;2022-12-18T05:04:57;-9.00;99.90
19033;DHT22;9649;51.042;13.804;2022-12-18T05:10:00;-8.90;99.90
19033;DHT22;9649;51.042;13.804;2022-12-18T05:15:05;-9.10;99.90
19033;DHT22;9649;51.042;13.804;2022-12-18T05:20:09;-9.20;99.90
19033;DHT22;9649;51.042;13.804;2022-12-18T05:25:12;-9.40;99.90
19033;DHT22;9649;51.042;13.804;2022-12-18T05:30:16;-9.40;99.90
19033;DHT22;9649;51.042;13.804;2022-12-18T05:35:19;-9.50;99.90
19033;DHT22;9649;51.042;13.804;2022-12-18T05:40:22;-9.70;99.90
19033;DHT22;9649;51.042;13.804;2022-12-18T05:45:26;-9.60;99.90
19033;DHT22;9649;51.042;13.804;2022-12-18T05:50:29;-9.70;99.90
19033;DHT22;9649;51.042;13.804;2022-12-18T05:55:32;-9.70;99.90
19033;DHT22;9649;51.042;13.804;2022-12-18T06:00:39;-9.70;99.90
19033;DHT22;9649;51.042;13.804;2022-12-18T06:05:44;-9.60;99.90
19033;DHT22;9649;51.042;13.804;2022-12-18T06:10:50;-9.70;99.90
19033;DHT22;9649;51.042;13.804;2022-12-18T06:15:55;-9.80;99.90
19033;DHT22;9649;51.042;13.804;2022-12-18T06:20:59;-9.90;99.90
19033;DHT22;9649;51.042;13.804;2022-12-18T06:26:04;-10.00;99.90
19033;DHT22;9649;51.042;13.804;2022-12-18T06:31:09;-10.20;99.90
19033;DHT22;9649;51.042;13.804;2022-12-18T06:36:13;-10.20;99.90
19033;DHT22;9649;51.042;13.804;2022-12-18T06:41:18;-10.20;99.90
19033;DHT22;9649;51.042;13.804;2022-12-18T06:46:22;-10.30;99.90
19033;DHT22;9649;51.042;13.804;2022-12-18T06:51:25;-10.20;99.90
19033;DHT22;9649;51.042;13.804;2022-12-18T06:56:28;-10.30;99.90
19033;DHT22;9649;51.042;13.804;2022-12-18T07:01:33;-10.30;99.90
19033;DHT22;9649;51.042;13.804;2022-12-18T07:06:36;-10.20;99.90
19033;DHT22;9649;51.042;13.804;2022-12-18T07:11:38;-10.10;99.90
19033;DHT22;9649;51.042;13.804;2022-12-18T07:16:43;-9.90;99.90
19033;DHT22;9649;51.042;13.804;2022-12-18T07:21:45;-9.90;99.90
19033;DHT22;9649;51.042;13.804;2022-12-18T07:26:48;-9.80;99.90
19033;DHT22;9649;51.042;13.804;2022-12-18T07:31:52;-9.40;99.90
19033;DHT22;9649;51.042;13.804;2022-12-18T07:36:55;-9.00;99.90
19033;DHT22;9649;51.042;13.804;2022-12-18T07:41:58;-7.60;99.90
19033;DHT22;9649;51.042;13.804;2022-12-18T07:47:20;-6.40;99.90
19033;DHT22;9649;51.042;13.804;2022-12-18T07:52:22;-5.40;99.90
19033;DHT22;9649;51.042;13.804;2022-12-18T07:57:27;-4.10;99.90
19033;DHT22;9649;51.042;13.804;2022-12-18T08:02:51;-2.40;99.90
19033;DHT22;9649;51.042;13.804;2022-12-18T08:07:54;-2.50;1.00
19033;DHT22;9649;51.042;13.804;2022-12-18T08:12:57;-2.90;50.10
19033;DHT22;9649;51.042;13.804;2022-12-18T08:18:06;-3.90;1.00
19033;DHT22;9649;51.042;13.804;2022-12-18T08:23:14;-3.60;1.00
19033;DHT22;9649;51.042;13.804;2022-12-18T08:28:17;-2.70;1.00
19033;DHT22;9649;51.042;13.804;2022-12-18T08:33:22;-0.20;1.00
19033;DHT22;9649;51.042;13.804;2022-12-18T08:38:25;2.80;99.90
19033;DHT22;9649;51.042;13.804;2022-12-18T08:43:28;5.70;1.00
19033;DHT22;9649;51.042;13.804;2022-12-18T08:48:50;8.80;1.00
19033;DHT22;9649;51.042;13.804;2022-12-18T08:53:53;11.30;1.00
19033;DHT22;9649;51.042;13.804;2022-12-18T08:58:57;12.60;1.00
19033;DHT22;9649;51.042;13.804;2022-12-18T09:04:01;13.70;99.90
19033;DHT22;9649;51.042;13.804;2022-12-18T09:09:05;13.40;99.90
19033;DHT22;9649;51.042;13.804;2022-12-18T09:14:10;12.50;99.90
19033;DHT22;9649;51.042;13.804;2022-12-18T09:19:14;9.50;99.90
19033;DHT22;9649;51.042;13.804;2022-12-18T09:24:17;7.50;1.00
19033;DHT22;9649;51.042;13.804;2022-12-18T09:29:19;8.80;1.00
19033;DHT22;9649;51.042;13.804;2022-12-18T09:34:24;9.50;1.00
19033;DHT22;9649;51.042;13.804;2022-12-18T09:39:26;8.40;1.00
19033;DHT22;9649;51.042;13.804;2022-12-18T09:44:31;8.50;1.00
19033;DHT22;9649;51.042;13.804;2022-12-18T09:49:44;9.20;1.00
19033;DHT22;9649;51.042;13.804;2022-12-18T09:54:51;8.80;1.00
19033;DHT22;9649;51.042;13.804;2022-12-18T10:00:03;7.80;1.00
19033;DHT22;9649;51.042;13.804;2022-12-18T10:05:12;6.80;1.00
19033;DHT22;9649;51.042;13.804;2022-12-18T10:10:26;8.70;1.00
19033;DHT22;9649;51.042;13.804;2022-12-18T10:15:33;9.80;1.00
19033;DHT22;9649;51.042;13.804;2022-12-18T10:20:46;8.10;1.00
19033;DHT22;9649;51.042;13.804;2022-12-18T10:25:55;7.90;1.00
19033;DHT22;9649;51.042;13.804;2022-12-18T10:30:59;10.70;1.00
19033;DHT22;9649;51.042;13.804;2022-12-18T10:36:04;10.00;1.00
19033;DHT22;9649;51.042;13.804;2022-12-18T10:41:24;8.00;1.00
19033;DHT22;9649;51.042;13.804;2022-12-18T10:46:29;6.90;1.00
19033;DHT22;9649;51.042;13.804;2022-12-18T10:51:34;8.40;1.00
19033;DHT22;9649;51.042;13.804;2022-12-18T10:56:39;8.90;1.00
19033;DHT22;9649;51.042;13.804;2022-12-18T11:01:49;9.80;1.00
19033;DHT22;9649;51.042;13.804;2022-12-18T11:06:59;9.10;1.00
19033;DHT22;9649;51.042;13.804;2022-12-18T11:12:03;10.70;1.00
19033;DHT22;9649;51.042;13.804;2022-12-18T11:17:18;9.20;1.00
19033;DHT22;9649;51.042;13.804;2022-12-18T11:22:29;11.50;1.00
19033;DHT22;9649;51.042;13.804;2022-12-18T11:27:33;9.50;99.90
19033;DHT22;9649;51.042;13.804;2022-12-18T11:32:36;10.20;99.90
19033;DHT22;9649;51.042;13.804;2022-12-18T11:37:46;8.90;99.90
19033;DHT22;9649;51.042;13.804;2022-12-18T11:42:53;8.40;1.00
19033;DHT22;9649;51.042;13.804;2022-12-18T11:48:02;8.10;1.00
19033;DHT22;9649;51.042;13.804;2022-12-18T11:53:11;8.40;1.00
19033;DHT22;9649;51.042;13.804;2022-12-18T11:58:22;9.90;1.00
19033;DHT22;9649;51.042;13.804;2022-12-18T12:04:11;8.70;1.00
19033;DHT22;9649;51.042;13.804;2022-12-18T12:09:24;8.00;1.00
19033;DHT22;9649;51.042;13.804;2022-12-18T12:14:42;7.30;1.00
19033;DHT22;9649;51.042;13.804;2022-12-18T12:19:52;6.40;1.00
19033;DHT22;9649;51.042;13.804;2022-12-18T12:25:13;6.00;1.00
19033;DHT22;9649;51.042;13.804;2022-12-18T12:30:21;5.50;1.00
19033;DHT22;9649;51.042;13.804;2022-12-18T12:35:37;8.90;1.00
19033;DHT22;9649;51.042;13.804;2022-12-18T12:40:48;7.10;1.00
19033;DHT22;9649;51.042;13.804;2022-12-18T12:46:03;6.10;1.00
19033;DHT22;9649;51.042;13.804;2022-12-18T12:51:12;6.50;1.00
19033;DHT22;9649;51.042;13.804;2022-12-18T12:56:19;4.70;1.00
19033;DHT22;9649;51.042;13.804;2022-12-18T13:01:28;3.50;1.00
19033;DHT22;9649;51.042;13.804;2022-12-18T13:06:42;2.40;99.90
19033;DHT22;9649;51.042;13.804;2022-12-18T13:11:48;2.10;99.90
19033;DHT22;9649;51.042;13.804;2022-12-18T13:17:17;1.80;1.00
19033;DHT22;9649;51.042;13.804;2022-12-18T13:22:31;1.20;1.00
19033;DHT22;9649;51.042;13.804;2022-12-18T13:28:03;0.60;99.90
19033;DHT22;9649;51.042;13.804;2022-12-18T13:39:24;-0.80;1.00
19033;DHT22;9649;51.042;13.804;2022-12-18T13:44:37;-1.20;1.00
19033;DHT22;9649;51.042;13.804;2022-12-18T13:49:44;-1.30;20.60
19033;DHT22;9649;51.042;13.804;2022-12-18T13:54:50;-1.40;99.90
19033;DHT22;9649;51.042;13.804;2022-12-18T13:59:56;-1.50;1.00
19033;DHT22;9649;51.042;13.804;2022-12-18T14:04:58;-1.40;1.00
19033;DHT22;9649;51.042;13.804;2022-12-18T14:10:02;-1.50;1.00
19033;DHT22;9649;51.042;13.804;2022-12-18T14:15:31;-1.70;99.90
19033;DHT22;9649;51.042;13.804;2022-12-18T14:20:35;-1.90;1.00
19033;DHT22;9649;51.042;13.804;2022-12-18T14:25:46;-1.90;1.00
19033;DHT22;9649;51.042;13.804;2022-12-18T14:30:50;-2.10;1.00
19033;DHT22;9649;51.042;13.804;2022-12-18T14:35:56;-2.30;1.00
19033;DHT22;9649;51.042;13.804;2022-12-18T14:41:01;-2.50;1.00
19033;DHT22;9649;51.042;13.804;2022-12-18T14:46:24;-2.70;99.90
19033;DHT22;9649;51.042;13.804;2022-12-18T14:51:29;-2.80;99.90
19033;DHT22;9649;51.042;13.804;2022-12-18T14:56:34;-2.90;1.00
19033;DHT22;9649;51.042;13.804;2022-12-18T15:01:45;-3.10;1.00
19033;DHT22;9649;51.042;13.804;2022-12-18T15:07:03;-3.10;1.00
19033;DHT22;9649;51.042;13.804;2022-12-18T15:12:22;-3.30;1.00
19033;DHT22;9649;51.042;13.804;2022-12-18T15:17:28;-3.40;1.00
19033;DHT22;9649;51.042;13.804;2022-12-18T15:22:34;-3.50;1.00
19033;DHT22;9649;51.042;13.804;2022-12-18T15:27:37;-3.50;1.00
19033;DHT22;9649;51.042;13.804;2022-12-18T15:32:42;-3.60;1.00
19033;DHT22;9649;51.042;13.804;2022-12-18T15:37:45;-3.60;1.00
19033;DHT22;9649;51.042;13.804;2022-12-18T15:42:49;-3.60;1.00
19033;DHT22;9649;51.042;13.804;2022-12-18T15:48:20;-3.60;1.00
19033;DHT22;9649;51.042;13.804;2022-12-18T15:53:23;-3.70;1.00
19033;DHT22;9649;51.042;13.804;2022-12-18T15:58:26;-3.70;1.00
19033;DHT22;9649;51.042;13.804;2022-12-18T16:03:31;-3.80;1.00
19033;DHT22;9649;51.042;13.804;2022-12-18T16:08:34;-3.80;1.00
19033;DHT22;9649;51.042;13.804;2022-12-18T16:13:36;-3.80;1.00
19033;DHT22;9649;51.042;13.804;2022-12-18T16:18:41;-3.80;1.00
19033;DHT22;9649;51.042;13.804;2022-12-18T16:23:44;-3.80;1.00
19033;DHT22;9649;51.042;13.804;2022-12-18T16:28:47;-3.80;1.00
19033;DHT22;9649;51.042;13.804;2022-12-18T16:34:09;-3.80;1.00
19033;DHT22;9649;51.042;13.804;2022-12-18T16:39:12;-3.80;1.00
19033;DHT22;9649;51.042;13.804;2022-12-18T16:44:15;-3.80;1.00
19033;DHT22;9649;51.042;13.804;2022-12-18T16:49:19;-3.80;1.00
19033;DHT22;9649;51.042;13.804;2022-12-18T16:54:23;-3.90;1.00
19033;DHT22;9649;51.042;13.804;2022-12-18T16:59:26;-3.70;1.00
19033;DHT22;9649;51.042;13.804;2022-12-18T17:04:31;-3.70;1.00
19033;DHT22;9649;51.042;13.804;2022-12-18T17:09:35;-3.70;1.00
19033;DHT22;9649;51.042;13.804;2022-12-18T17:14:38;-3.70;1.00
19033;DHT22;9649;51.042;13.804;2022-12-18T17:19:43;-3.70;1.00
19033;DHT22;9649;51.042;13.804;2022-12-18T17:24:46;-3.70;1.00
19033;DHT22;9649;51.042;13.804;2022-12-18T17:29:49;-3.70;1.00
19033;DHT22;9649;51.042;13.804;2022-12-18T17:34:53;-3.70;1.00
19033;DHT22;9649;51.042;13.804;2022-12-18T17:39:56;-3.70;1.00
19033;DHT22;9649;51.042;13.804;2022-12-18T17:44:59;-3.60;1.00
19033;DHT22;9649;51.042;13.804;2022-12-18T17:50:03;-3.60;1.00
19033;DHT22;9649;51.042;13.804;2022-12-18T17:55:06;-3.60;1.00
19033;DHT22;9649;51.042;13.804;2022-12-18T18:00:10;-3.50;1.00
19033;DHT22;9649;51.042;13.804;2022-12-18T18:05:15;-3.50;1.00
19033;DHT22;9649;51.042;13.804;2022-12-18T18:10:18;-3.40;1.00
19033;DHT22;9649;51.042;13.804;2022-12-18T18:15:20;-3.40;1.00
19033;DHT22;9649;51.042;13.804;2022-12-18T18:20:25;-3.30;1.00
19033;DHT22;9649;51.042;13.804;2022-12-18T18:25:29;-3.30;1.00
19033;DHT22;9649;51.042;13.804;2022-12-18T18:30:32;-3.20;1.00
19033;DHT22;9649;51.042;13.804;2022-12-18T18:35:40;-3.20;1.00
19033;DHT22;9649;51.042;13.804;2022-12-18T18:40:59;-3.10;1.00
19033;DHT22;9649;51.042;13.804;2022-12-18T18:46:03;-3.10;1.00
19033;DHT22;9649;51.042;13.804;2022-12-18T18:51:10;-3.00;1.00
19033;DHT22;9649;51.042;13.804;2022-12-18T18:56:23;-3.00;1.00
19033;DHT22;9649;51.042;13.804;2022-12-18T19:01:48;-3.00;1.00
19033;DHT22;9649;51.042;13.804;2022-12-18T19:06:52;-3.00;1.00
19033;DHT22;9649;51.042;13.804;2022-12-18T19:11:56;-3.00;1.00
19033;DHT22;9649;51.042;13.804;2022-12-18T19:17:22;-3.00;1.00
19033;DHT22;9649;51.042;13.804;2022-12-18T19:22:32;-3.00;1.00
19033;DHT22;9649;51.042;13.804;2022-12-18T19:27:35;-3.00;1.00
19033;DHT22;9649;51.042;13.804;2022-12-18T19:32:40;-3.10;1.00
19033;DHT22;9649;51.042;13.804;2022-12-18T19:37:44;-3.00;1.00
19033;DHT22;9649;51.042;13.804;2022-12-18T19:42:47;-3.00;1.00
19033;DHT22;9649;51.042;13.804;2022-12-18T19:47:50;-3.10;1.00
19033;DHT22;9649;51.042;13.804;2022-12-18T19:52:54;-3.00;1.00
19033;DHT22;9649;51.042;13.804;2022-12-18T19:57:57;-3.00;1.00
19033;DHT22;9649;51.042;13.804;2022-12-18T20:03:00;-3.00;1.00
19033;DHT22;9649;51.042;13.804;2022-12-18T20:08:20;-2.90;1.00
19033;DHT22;9649;51.042;13.804;2022-12-18T20:13:23;-2.80;1.00
19033;DHT22;9649;51.042;13.804;2022-12-18T20:18:28;-2.80;99.90
19033;DHT22;9649;51.042;13.804;2022-12-18T20:23:32;-2.80;99.90
19033;DHT22;9649;51.042;13.804;2022-12-18T20:28:37;-2.80;99.90
19033;DHT22;9649;51.042;13.804;2022-12-18T20:33:41;-2.70;99.90
19033;DHT22;9649;51.042;13.804;2022-12-18T20:38:49;-2.70;1.00
19033;DHT22;9649;51.042;13.804;2022-12-18T20:43:59;-2.70;1.00
19033;DHT22;9649;51.042;13.804;2022-12-18T20:49:01;-2.70;1.00
19033;DHT22;9649;51.042;13.804;2022-12-18T20:54:06;-2.60;1.00
19033;DHT22;9649;51.042;13.804;2022-12-18T20:59:12;-2.50;1.00
19033;DHT22;9649;51.042;13.804;2022-12-18T21:04:16;-2.40;1.00
19033;DHT22;9649;51.042;13.804;2022-12-18T21:09:21;-2.40;1.00
19033;DHT22;9649;51.042;13.804;2022-12-18T21:14:27;-2.30;1.00
19033;DHT22;9649;51.042;13.804;2022-12-18T21:19:29;-2.30;99.90
19033;DHT22;9649;51.042;13.804;2022-12-18T21:24:34;-2.50;1.00
19033;DHT22;9649;51.042;13.804;2022-12-18T21:29:37;-2.60;1.00
19033;DHT22;9649;51.042;13.804;2022-12-18T21:34:40;-2.60;99.90
19033;DHT22;9649;51.042;13.804;2022-12-18T21:39:49;-2.50;1.00
19033;DHT22;9649;51.042;13.804;2022-12-18T21:44:52;-2.50;1.00
19033;DHT22;9649;51.042;13.804;2022-12-18T21:49:55;-2.60;1.00
19033;DHT22;9649;51.042;13.804;2022-12-18T21:54:59;-2.60;1.00
19033;DHT22;9649;51.042;13.804;2022-12-18T22:00:11;-2.70;99.90
19033;DHT22;9649;51.042;13.804;2022-12-18T22:05:20;-2.70;99.90
19033;DHT22;9649;51.042;13.804;2022-12-18T22:10:24;-2.80;99.90
19033;DHT22;9649;51.042;13.804;2022-12-18T22:15:27;-2.90;1.00
19033;DHT22;9649;51.042;13.804;2022-12-18T22:20:29;-2.90;1.00
19033;DHT22;9649;51.042;13.804;2022-12-18T22:25:34;-2.90;1.00
19033;DHT22;9649;51.042;13.804;2022-12-18T22:30:40;-2.90;1.00
19033;DHT22;9649;51.042;13.804;2022-12-18T22:35:43;-3.00;1.00
19033;DHT22;9649;51.042;13.804;2022-12-18T22:40:47;-3.00;1.00
19033;DHT22;9649;51.042;13.804;2022-12-18T22:45:50;-3.00;1.00
19033;DHT22;9649;51.042;13.804;2022-12-18T22:50:53;-3.00;1.00
19033;DHT22;9649;51.042;13.804;2022-12-18T22:56:01;-3.00;1.00
19033;DHT22;9649;51.042;13.804;2022-12-18T23:01:05;-3.00;1.00
19033;DHT22;9649;51.042;13.804;2022-12-18T23:06:09;-3.10;1.00
19033;DHT22;9649;51.042;13.804;2022-12-18T23:11:15;-3.10;1.00
19033;DHT22;9649;51.042;13.804;2022-12-18T23:16:19;-3.10;1.00
19033;DHT22;9649;51.042;13.804;2022-12-18T23:21:23;-3.10;1.00
19033;DHT22;9649;51.042;13.804;2022-12-18T23:26:27;-3.20;1.00
19033;DHT22;9649;51.042;13.804;2022-12-18T23:31:32;-3.20;1.00
19033;DHT22;9649;51.042;13.804;2022-12-18T23:36:35;-3.20;1.00
19033;DHT22;9649;51.042;13.804;2022-12-18T23:41:48;-3.20;1.00
19033;DHT22;9649;51.042;13.804;2022-12-18T23:46:51;-3.20;1.00
19033;DHT22;9649;51.042;13.804;2022-12-18T23:51:54;-3.20;1.00
19033;DHT22;9649;51.042;13.804;2022-12-18T23:56:58;-3.20;1.00
